createdAt,value
2023-04-22T00:01:54.196Z,11.00
2023-04-22T00:04:21.482Z,11.00
2023-04-22T00:06:48.718Z,11.00
2023-04-22T00:09:16.308Z,10.90
2023-04-22T00:11:46.874Z,10.80
2023-04-22T00:14:14.001Z,10.80
2023-04-22T00:16:43.229Z,10.80
2023-04-22T00:19:10.727Z,10.80
2023-04-22T00:21:38.408Z,10.80
2023-04-22T00:24:06.746Z,10.80
2023-04-22T00:26:37.200Z,10.80
2023-04-22T00:29:04.086Z,10.80
2023-04-22T00:31:31.902Z,10.80
2023-04-22T00:34:01.513Z,10.80
2023-04-22T00:36:31.768Z,10.90
2023-04-22T00:38:59.285Z,11.00
2023-04-22T00:41:27.150Z,11.00
2023-04-22T00:43:58.492Z,10.90
2023-04-22T00:46:26.628Z,10.80
2023-04-22T00:48:54.093Z,10.90
2023-04-22T00:51:23.124Z,10.90
2023-04-22T00:53:53.917Z,11.00
2023-04-22T00:56:22.035Z,11.00
2023-04-22T00:58:49.657Z,11.00
2023-04-22T01:01:19.801Z,11.10
2023-04-22T01:06:44.634Z,10.90
2023-04-22T01:09:11.897Z,10.90
2023-04-22T01:11:39.650Z,10.90
2023-04-22T01:14:07.197Z,10.90
2023-04-22T01:16:39.330Z,10.90
2023-04-22T01:19:06.862Z,10.90
2023-04-22T01:21:36.132Z,10.90
2023-04-22T01:24:05.382Z,10.90
2023-04-22T01:26:33.210Z,10.90
2023-04-22T01:29:02.661Z,10.90
2023-04-22T01:31:38.582Z,10.90
2023-04-22T01:34:08.702Z,11.00
2023-04-22T01:36:36.032Z,10.90
2023-04-22T01:39:08.207Z,10.90
2023-04-22T01:41:37.918Z,10.90
2023-04-22T01:44:05.460Z,10.90
2023-04-22T01:46:45.003Z,11.00
2023-04-22T01:49:18.240Z,11.00
2023-04-22T01:51:47.223Z,11.00
2023-04-22T01:54:16.296Z,11.00
2023-04-22T01:56:50.955Z,10.90
2023-04-22T01:59:24.147Z,11.00
2023-04-22T02:01:51.814Z,11.00
2023-04-22T02:04:19.194Z,11.10
2023-04-22T02:06:47.072Z,11.00
2023-04-22T02:09:22.108Z,11.00
2023-04-22T02:11:49.200Z,11.00
2023-04-22T02:14:26.945Z,11.00
2023-04-22T02:16:57.628Z,11.00
2023-04-22T02:19:24.546Z,11.00
2023-04-22T02:21:52.433Z,10.90
2023-04-22T02:24:21.328Z,11.00
2023-04-22T02:26:51.404Z,11.10
2023-04-22T02:29:56.847Z,11.10
2023-04-22T02:32:23.878Z,11.00
2023-04-22T02:34:52.124Z,11.00
2023-04-22T02:40:11.036Z,11.00
2023-04-22T02:42:38.555Z,11.00
2023-04-22T02:45:07.229Z,11.00
2023-04-22T02:47:38.039Z,11.00
2023-04-22T02:50:06.728Z,11.00
2023-04-22T02:52:40.033Z,11.00
2023-04-22T02:55:10.532Z,11.00
2023-04-22T02:57:41.076Z,11.00
2023-04-22T03:00:11.012Z,11.00
2023-04-22T03:02:38.885Z,10.90
2023-04-22T03:05:07.627Z,10.90
2023-04-22T03:07:35.356Z,10.90
2023-04-22T03:10:08.294Z,10.90
2023-04-22T03:12:37.091Z,10.90
2023-04-22T03:15:05.783Z,11.00
2023-04-22T03:17:32.913Z,11.00
2023-04-22T03:20:03.283Z,11.00
2023-04-22T03:22:30.363Z,11.00
2023-04-22T03:25:01.612Z,10.90
2023-04-22T03:27:28.753Z,10.90
2023-04-22T03:29:57.960Z,10.80
2023-04-22T03:32:25.372Z,10.80
2023-04-22T03:34:56.130Z,10.70
2023-04-22T03:37:23.146Z,10.70
2023-04-22T03:39:50.638Z,10.80
2023-04-22T03:42:18.083Z,10.80
2023-04-22T03:47:34.797Z,10.80
2023-04-22T03:50:01.837Z,10.80
2023-04-22T03:52:28.763Z,10.80
2023-04-22T03:54:55.851Z,10.80
2023-04-22T03:57:26.422Z,10.80
2023-04-22T03:59:54.157Z,10.70
2023-04-22T04:02:21.473Z,10.70
2023-04-22T04:04:51.762Z,10.70
2023-04-22T04:07:19.071Z,10.70
2023-04-22T04:09:46.800Z,10.80
2023-04-22T04:12:13.847Z,10.70
2023-04-22T04:14:41.585Z,10.80
2023-04-22T04:17:14.010Z,10.80
2023-04-22T04:19:42.118Z,10.80
2023-04-22T04:22:11.046Z,10.80
2023-04-22T04:24:42.771Z,10.90
2023-04-22T04:27:16.149Z,10.90
2023-04-22T04:29:46.605Z,10.90
2023-04-22T04:32:14.788Z,10.90
2023-04-22T04:34:42.522Z,10.80
2023-04-22T04:37:19.279Z,10.80
2023-04-22T04:39:46.225Z,10.80
2023-04-22T04:42:14.383Z,10.70
2023-04-22T04:44:42.007Z,10.80
2023-04-22T04:47:15.994Z,10.80
2023-04-22T04:49:44.346Z,10.90
2023-04-22T04:52:12.658Z,10.90
2023-04-22T04:54:46.515Z,10.90
2023-04-22T04:59:58.260Z,10.80
2023-04-22T05:02:26.000Z,10.80
2023-04-22T05:04:53.285Z,10.80
2023-04-22T05:10:08.141Z,10.90
2023-04-22T05:12:35.713Z,10.90
2023-04-22T05:15:03.267Z,10.90
2023-04-22T05:17:33.929Z,10.90
2023-04-22T05:20:00.893Z,10.90
2023-04-22T05:22:37.411Z,10.90
2023-04-22T05:25:05.014Z,10.90
2023-04-22T05:27:32.609Z,10.90
2023-04-22T05:29:59.543Z,11.00
2023-04-22T05:32:27.529Z,11.00
2023-04-22T05:34:54.518Z,10.90
2023-04-22T05:37:21.509Z,11.00
2023-04-22T05:39:50.371Z,10.90
2023-04-22T05:42:17.464Z,10.90
2023-04-22T05:44:44.747Z,11.00
2023-04-22T05:47:11.879Z,11.10
2023-04-22T05:49:41.981Z,11.10
2023-04-22T05:52:09.275Z,11.20
2023-04-22T05:54:36.812Z,11.30
2023-04-22T05:57:05.814Z,11.40
2023-04-22T05:59:36.189Z,11.50
2023-04-22T06:02:04.553Z,11.50
2023-04-22T06:04:34.555Z,11.60
2023-04-22T06:07:04.002Z,11.70
2023-04-22T06:09:31.728Z,11.60
2023-04-22T06:11:58.943Z,11.60
2023-04-22T06:14:27.294Z,11.70
2023-04-22T06:16:59.519Z,11.80
2023-04-22T06:19:27.078Z,12.00
2023-04-22T06:21:56.624Z,12.20
2023-04-22T06:24:27.078Z,12.30
2023-04-22T06:26:54.140Z,12.40
2023-04-22T06:29:21.142Z,12.50
2023-04-22T06:34:34.217Z,12.60
2023-04-22T06:37:01.882Z,12.70
2023-04-22T06:39:28.949Z,12.90
2023-04-22T06:41:57.168Z,13.10
2023-04-22T06:44:25.860Z,13.20
2023-04-22T06:46:56.489Z,13.30
2023-04-22T06:49:25.487Z,13.30
2023-04-22T06:51:55.509Z,13.40
2023-04-22T06:54:23.071Z,13.50
2023-04-22T06:56:50.045Z,13.70
2023-04-22T06:59:17.525Z,13.90
2023-04-22T07:01:44.569Z,14.00
2023-04-22T07:04:14.775Z,14.20
2023-04-22T07:06:43.228Z,14.50
2023-04-22T07:09:10.741Z,16.90
2023-04-22T07:11:37.816Z,20.10
2023-04-22T07:14:07.560Z,22.00
2023-04-22T07:16:38.970Z,21.60
2023-04-22T07:19:07.313Z,20.40
2023-04-22T07:21:38.049Z,19.10
2023-04-22T07:24:05.991Z,20.60
2023-04-22T07:26:34.437Z,26.10
2023-04-22T07:29:04.365Z,28.80
2023-04-22T07:31:31.913Z,24.90
2023-04-22T07:33:59.525Z,25.60
2023-04-22T07:36:26.765Z,26.30
2023-04-22T07:38:55.532Z,24.80
2023-04-22T07:41:22.682Z,24.50
2023-04-22T07:43:50.309Z,23.30
2023-04-22T07:46:17.327Z,22.50
2023-04-22T07:48:45.492Z,21.50
2023-04-22T07:51:13.088Z,20.90
2023-04-22T07:53:40.593Z,22.40
2023-04-22T07:56:09.647Z,24.80
2023-04-22T07:58:37.108Z,25.20
2023-04-22T08:01:04.670Z,25.40
2023-04-22T08:03:31.944Z,25.20
2023-04-22T08:05:59.093Z,26.80
2023-04-22T08:08:26.624Z,25.70
2023-04-22T08:13:22.807Z,29.10
2023-04-22T08:15:59.914Z,27.00
2023-04-22T08:18:27.472Z,25.10
2023-04-22T08:20:54.843Z,26.00
2023-04-22T08:23:23.158Z,26.70
2023-04-22T08:25:50.252Z,27.00
2023-04-22T08:28:17.988Z,27.00
2023-04-22T08:30:46.693Z,26.80
2023-04-22T08:33:13.694Z,27.00
2023-04-22T08:35:41.075Z,26.20
2023-04-22T08:38:08.252Z,26.00
2023-04-22T08:40:36.358Z,25.70
2023-04-22T08:43:06.426Z,25.80
2023-04-22T08:45:41.115Z,25.70
2023-04-22T08:48:10.763Z,25.90
2023-04-22T08:50:41.967Z,26.10
2023-04-22T08:53:09.105Z,25.20
2023-04-22T08:55:37.169Z,25.30
2023-04-22T08:58:07.659Z,25.10
2023-04-22T09:00:36.560Z,24.70
2023-04-22T09:03:07.187Z,23.80
2023-04-22T09:05:38.309Z,23.10
2023-04-22T09:08:10.236Z,22.70
2023-04-22T09:10:38.388Z,22.30
2023-04-22T09:13:09.103Z,22.00
2023-04-22T09:15:36.216Z,21.60
2023-04-22T09:18:09.427Z,21.30
2023-04-22T09:20:42.572Z,21.00
2023-04-22T09:23:12.514Z,20.90
2023-04-22T09:25:41.730Z,20.70
2023-04-22T09:28:19.574Z,20.70
2023-04-22T09:30:50.126Z,21.00
2023-04-22T09:33:20.124Z,21.30
2023-04-22T09:35:49.260Z,21.50
2023-04-22T09:38:21.194Z,21.50
2023-04-22T09:40:48.709Z,21.60
2023-04-22T09:43:20.402Z,21.70
2023-04-22T09:45:48.000Z,21.70
2023-04-22T09:48:18.334Z,21.80
2023-04-22T09:50:50.798Z,21.90
2023-04-22T09:53:20.617Z,21.90
2023-04-22T09:55:51.984Z,22.00
2023-04-22T09:58:21.451Z,22.20
2023-04-22T10:00:54.690Z,22.00
2023-04-22T10:03:25.400Z,21.80
2023-04-22T10:05:53.787Z,21.70
2023-04-22T10:08:20.814Z,21.60
2023-04-22T10:10:48.547Z,21.50
2023-04-22T10:13:15.837Z,21.40
2023-04-22T10:15:48.681Z,21.40
2023-04-22T10:18:22.011Z,21.40
2023-04-22T10:20:51.569Z,21.10
2023-04-22T10:23:26.793Z,21.20
2023-04-22T10:25:56.505Z,21.30
2023-04-22T10:28:30.095Z,21.40
2023-04-22T10:30:57.912Z,21.50
2023-04-22T10:36:28.284Z,21.40
2023-04-22T10:39:19.357Z,21.30
2023-04-22T10:41:54.319Z,21.10
2023-04-22T10:44:24.155Z,21.00
2023-04-22T10:47:01.212Z,20.80
2023-04-22T10:49:31.685Z,20.90
2023-04-22T10:52:01.352Z,20.90
2023-04-22T10:55:05.673Z,21.00
2023-04-22T10:57:41.143Z,21.10
2023-04-22T11:00:45.755Z,21.30
2023-04-22T11:03:28.286Z,21.30
2023-04-22T11:06:24.865Z,21.30
2023-04-22T11:09:10.208Z,21.10
2023-04-22T11:11:39.045Z,21.10
2023-04-22T11:14:06.426Z,21.00
2023-04-22T11:16:34.426Z,20.90
2023-04-22T11:19:01.939Z,20.90
2023-04-22T11:21:29.197Z,20.90
2023-04-22T11:23:57.540Z,20.90
2023-04-22T11:26:35.237Z,20.90
2023-04-22T11:29:06.129Z,20.80
2023-04-22T11:31:36.704Z,20.80
2023-04-22T11:34:03.784Z,20.80
2023-04-22T11:36:31.773Z,20.90
2023-04-22T11:38:59.364Z,20.90
2023-04-22T11:41:29.960Z,20.80
2023-04-22T11:43:57.517Z,20.90
2023-04-22T11:46:38.442Z,20.90
2023-04-22T11:49:14.013Z,21.00
2023-04-22T11:51:56.536Z,20.90
2023-04-22T11:54:38.724Z,21.00
2023-04-22T11:57:11.622Z,21.00
2023-04-22T11:59:39.232Z,21.20
2023-04-22T12:02:11.468Z,21.40
2023-04-22T12:04:39.965Z,21.30
2023-04-22T12:07:07.851Z,21.30
2023-04-22T12:09:35.678Z,21.50
2023-04-22T12:12:04.005Z,21.80
2023-04-22T12:14:39.957Z,21.80
2023-04-22T12:17:12.092Z,21.70
2023-04-22T12:19:40.324Z,21.70
2023-04-22T12:22:07.522Z,21.70
2023-04-22T12:24:37.365Z,21.80
2023-04-22T12:27:04.577Z,21.70
2023-04-22T12:29:34.221Z,21.80
2023-04-22T12:32:01.279Z,21.80
2023-04-22T12:34:30.045Z,21.90
2023-04-22T12:37:00.381Z,21.90
2023-04-22T12:39:27.930Z,21.70
2023-04-22T12:41:58.545Z,21.70
2023-04-22T12:44:29.080Z,21.60
2023-04-22T12:46:56.674Z,21.60
2023-04-22T12:49:23.810Z,21.60
2023-04-22T12:51:53.023Z,21.60
2023-04-22T12:54:21.283Z,21.70
2023-04-22T12:56:51.054Z,21.90
2023-04-22T12:59:21.348Z,22.20
2023-04-22T13:01:52.080Z,22.40
2023-04-22T13:04:20.143Z,22.50
2023-04-22T13:06:56.743Z,22.40
2023-04-22T13:09:28.031Z,22.30
2023-04-22T13:12:07.156Z,22.00
2023-04-22T13:14:34.695Z,21.80
2023-04-22T13:17:04.123Z,21.50
2023-04-22T13:19:37.699Z,21.20
2023-04-22T13:22:06.993Z,21.10
2023-04-22T13:24:34.101Z,21.00
2023-04-22T13:27:08.552Z,20.90
2023-04-22T13:29:39.451Z,20.90
2023-04-22T13:32:09.570Z,20.80
2023-04-22T13:34:45.757Z,20.70
2023-04-22T13:37:23.705Z,20.60
2023-04-22T13:39:51.301Z,20.60
2023-04-22T13:42:31.721Z,20.50
2023-04-22T13:45:11.337Z,20.50
2023-04-22T13:47:42.791Z,20.40
2023-04-22T13:50:16.054Z,20.30
2023-04-22T13:52:45.267Z,20.20
2023-04-22T13:55:13.065Z,20.10
2023-04-22T13:57:41.320Z,20.10
2023-04-22T14:00:10.034Z,20.00
2023-04-22T14:02:41.627Z,19.90
2023-04-22T14:05:11.135Z,19.80
2023-04-22T14:07:46.908Z,19.70
2023-04-22T14:10:21.079Z,19.70
2023-04-22T14:12:50.122Z,19.70
2023-04-22T14:15:23.714Z,19.60
2023-04-22T14:18:00.124Z,19.60
2023-04-22T14:20:27.465Z,19.50
2023-04-22T14:22:56.816Z,19.40
2023-04-22T14:25:27.651Z,19.30
2023-04-22T14:27:58.772Z,19.30
2023-04-22T14:30:32.808Z,19.20
2023-04-22T14:33:07.582Z,19.30
2023-04-22T14:35:38.820Z,19.30
2023-04-22T14:38:11.196Z,19.30
2023-04-22T14:40:41.194Z,19.30
2023-04-22T14:43:21.491Z,19.30
2023-04-22T14:45:49.557Z,19.40
2023-04-22T14:48:16.977Z,19.40
2023-04-22T14:50:53.822Z,19.50
2023-04-22T14:53:26.329Z,19.60
2023-04-22T14:55:53.792Z,19.70
2023-04-22T14:58:21.834Z,19.80
2023-04-22T15:00:49.591Z,19.70
2023-04-22T15:03:17.751Z,19.70
2023-04-22T15:05:49.106Z,19.70
2023-04-22T15:08:16.557Z,19.70
2023-04-22T15:10:46.227Z,19.80
2023-04-22T15:13:14.241Z,19.90
2023-04-22T15:15:41.561Z,20.10
2023-04-22T15:18:12.715Z,20.30
2023-04-22T15:20:40.591Z,20.30
2023-04-22T15:23:08.049Z,20.20
2023-04-22T15:25:45.508Z,20.10
2023-04-22T15:28:16.956Z,20.10
2023-04-22T15:30:44.856Z,20.00
2023-04-22T15:33:16.614Z,19.90
2023-04-22T15:35:46.354Z,19.80
2023-04-22T15:38:14.254Z,19.80
2023-04-22T15:40:41.598Z,19.80
2023-04-22T15:43:12.840Z,19.70
2023-04-22T15:45:44.955Z,19.70
2023-04-22T15:48:12.416Z,19.60
2023-04-22T15:50:44.686Z,19.50
2023-04-22T15:53:12.633Z,19.50
2023-04-22T15:55:39.942Z,19.50
2023-04-22T15:58:07.313Z,19.40
2023-04-22T16:00:37.192Z,19.50
2023-04-22T16:03:09.589Z,19.50
2023-04-22T16:05:52.042Z,19.50
2023-04-22T16:08:22.437Z,19.40
2023-04-22T16:10:49.584Z,19.40
2023-04-22T16:13:17.606Z,19.40
2023-04-22T16:15:45.166Z,19.40
2023-04-22T16:18:15.022Z,19.40
2023-04-22T16:20:42.272Z,19.30
2023-04-22T16:23:09.309Z,19.30
2023-04-22T16:25:36.420Z,19.30
2023-04-22T16:28:03.669Z,19.30
2023-04-22T16:30:33.788Z,19.30
2023-04-22T16:33:00.868Z,19.30
2023-04-22T16:35:29.851Z,19.30
2023-04-22T16:38:00.708Z,19.30
2023-04-22T16:41:43.399Z,19.30
2023-04-22T16:44:10.619Z,19.20
2023-04-22T16:46:41.096Z,19.20
2023-04-22T16:49:10.469Z,19.20
2023-04-22T16:51:39.868Z,19.10
2023-04-22T16:54:07.969Z,19.10
2023-04-22T16:56:37.917Z,19.10
2023-04-22T16:59:05.413Z,19.00
2023-04-22T17:01:32.487Z,18.90
2023-04-22T17:04:06.460Z,18.90
2023-04-22T17:06:39.855Z,18.80
2023-04-22T17:09:09.997Z,18.80
2023-04-22T17:11:40.283Z,18.70
2023-04-22T17:14:07.737Z,18.70
2023-04-22T17:16:34.833Z,18.70
2023-04-22T17:19:03.394Z,18.70
2023-04-22T17:21:31.366Z,18.70
2023-04-22T17:24:00.300Z,18.60
2023-04-22T17:26:28.131Z,18.60
2023-04-22T17:28:55.212Z,18.50
2023-04-22T17:31:23.856Z,18.50
2023-04-22T17:33:55.308Z,18.50
2023-04-22T17:36:22.330Z,18.50
2023-04-22T17:38:49.886Z,18.50
2023-04-22T17:41:19.020Z,18.50
2023-04-22T17:43:46.419Z,18.50
2023-04-22T17:46:16.753Z,18.40
2023-04-22T17:48:46.534Z,18.40
2023-04-22T17:51:13.868Z,18.40
2023-04-22T17:53:42.480Z,18.40
2023-04-22T17:56:09.581Z,18.40
2023-04-22T17:58:41.635Z,18.40
2023-04-22T18:01:08.940Z,18.30
2023-04-22T18:03:36.683Z,18.30
2023-04-22T18:06:04.014Z,18.30
2023-04-22T18:11:16.264Z,18.20
2023-04-22T18:16:30.746Z,18.10
2023-04-22T18:18:59.891Z,18.00
2023-04-22T18:21:29.617Z,18.00
2023-04-22T18:23:57.273Z,17.90
2023-04-22T18:26:24.450Z,17.90
2023-04-22T18:28:52.930Z,17.90
2023-04-22T18:31:20.673Z,17.80
2023-04-22T18:33:47.839Z,17.70
2023-04-22T18:36:14.837Z,17.50
2023-04-22T18:38:43.422Z,17.40
2023-04-22T18:41:12.937Z,17.40
2023-04-22T18:43:40.251Z,17.30
2023-04-22T18:46:11.455Z,17.30
2023-04-22T18:48:38.764Z,17.20
2023-04-22T18:51:06.867Z,17.20
2023-04-22T18:53:34.345Z,17.10
2023-04-22T18:56:02.299Z,17.10
2023-04-22T18:58:32.244Z,17.10
2023-04-22T19:01:03.021Z,17.00
2023-04-22T19:03:38.398Z,16.90
2023-04-22T19:06:07.079Z,16.90
2023-04-22T19:08:34.379Z,16.80
2023-04-22T19:11:02.318Z,16.80
2023-04-22T19:13:30.307Z,16.80
2023-04-22T19:16:01.274Z,16.80
2023-04-22T19:18:28.361Z,16.70
2023-04-22T19:20:56.677Z,16.60
2023-04-22T19:23:26.610Z,16.60
2023-04-22T19:26:00.297Z,16.60
2023-04-22T19:28:27.429Z,16.50
2023-04-22T19:30:55.186Z,16.50
2023-04-22T19:33:28.012Z,16.50
2023-04-22T19:35:58.689Z,16.40
2023-04-22T19:38:28.693Z,16.40
2023-04-22T19:40:56.768Z,16.30
2023-04-22T19:43:23.733Z,16.30
2023-04-22T19:45:50.852Z,16.30
2023-04-22T19:51:06.669Z,16.30
2023-04-22T19:53:35.059Z,16.20
2023-04-22T19:56:03.527Z,16.30
2023-04-22T19:58:33.661Z,16.20
2023-04-22T20:01:04.683Z,16.20
2023-04-22T20:03:33.133Z,16.20
2023-04-22T20:06:00.763Z,16.20
2023-04-22T20:08:29.406Z,16.20
2023-04-22T20:10:58.200Z,16.10
2023-04-22T20:13:25.572Z,16.10
2023-04-22T20:15:53.447Z,16.10
2023-04-22T20:18:20.880Z,16.10
2023-04-22T20:23:51.374Z,16.00
2023-04-22T20:26:20.474Z,16.00
2023-04-22T20:28:49.737Z,16.00
2023-04-22T20:31:19.962Z,15.90
2023-04-22T20:33:47.907Z,15.90
2023-04-22T20:36:20.351Z,15.90
2023-04-22T20:38:54.802Z,15.90
2023-04-22T20:41:25.051Z,15.90
2023-04-22T20:43:52.470Z,15.80
2023-04-22T20:46:22.804Z,15.80
2023-04-22T20:48:50.365Z,15.80
2023-04-22T20:51:17.431Z,15.80
2023-04-22T20:53:45.282Z,15.80
2023-04-22T20:56:14.180Z,15.80
2023-04-22T20:58:41.812Z,15.70
2023-04-22T21:01:09.584Z,15.70
2023-04-22T21:03:49.857Z,15.70
2023-04-22T21:06:18.787Z,15.70
2023-04-22T21:08:48.179Z,15.70
2023-04-22T21:11:23.614Z,15.60
2023-04-22T21:13:52.774Z,15.50
2023-04-22T21:16:25.919Z,15.50
2023-04-22T21:18:58.727Z,15.50
2023-04-22T21:21:34.293Z,15.50
2023-04-22T21:24:02.415Z,15.40
2023-04-22T21:26:31.481Z,15.40
2023-04-22T21:28:59.593Z,15.40
2023-04-22T21:31:27.508Z,15.50
2023-04-22T21:33:55.090Z,15.50
2023-04-22T21:36:27.072Z,15.50
2023-04-22T21:38:54.984Z,15.40
2023-04-22T21:41:26.239Z,15.50
2023-04-22T21:43:54.866Z,15.50
2023-04-22T21:46:23.016Z,15.40
2023-04-22T21:48:50.758Z,15.30
2023-04-22T21:51:17.788Z,15.30
2023-04-22T21:53:45.225Z,15.30
2023-04-22T21:56:12.859Z,15.40
2023-04-22T21:58:40.430Z,15.40
2023-04-22T22:01:09.357Z,15.30
2023-04-22T22:03:37.163Z,15.30
2023-04-22T22:06:07.041Z,15.30
2023-04-22T22:08:35.671Z,15.30
2023-04-22T22:11:03.963Z,15.20
2023-04-22T22:13:31.480Z,15.20
2023-04-22T22:16:00.653Z,15.10
2023-04-22T22:18:29.083Z,15.10
2023-04-22T22:20:56.028Z,15.10
2023-04-22T22:23:23.095Z,15.00
2023-04-22T22:25:50.394Z,15.00
2023-04-22T22:28:17.488Z,15.00
2023-04-22T22:30:44.596Z,15.00
2023-04-22T22:33:11.645Z,15.00
2023-04-22T22:35:41.396Z,15.00
2023-04-22T22:38:08.687Z,15.00
2023-04-22T22:40:38.552Z,14.90
2023-04-22T22:43:08.983Z,14.90
2023-04-22T22:45:36.586Z,14.90
2023-04-22T22:48:04.333Z,14.90
2023-04-22T22:50:31.401Z,14.70
2023-04-22T22:53:01.029Z,14.90
2023-04-22T22:55:28.029Z,14.80
2023-04-22T22:57:54.975Z,14.70
2023-04-22T23:00:25.710Z,14.80
2023-04-22T23:02:56.070Z,14.70
2023-04-22T23:05:24.102Z,14.70
2023-04-22T23:07:54.729Z,14.70
2023-04-22T23:10:23.442Z,14.70
2023-04-22T23:12:53.324Z,14.70
2023-04-22T23:15:20.640Z,14.70
2023-04-22T23:17:50.340Z,14.70
2023-04-22T23:20:24.667Z,14.70
2023-04-22T23:22:53.783Z,14.70
2023-04-22T23:25:23.152Z,14.70
2023-04-22T23:27:54.201Z,14.70
2023-04-22T23:30:29.726Z,14.70
2023-04-22T23:32:57.918Z,14.70
2023-04-22T23:35:27.562Z,14.70
2023-04-22T23:37:57.379Z,14.60
2023-04-22T23:40:25.750Z,14.70
2023-04-22T23:42:52.812Z,14.70
2023-04-22T23:45:19.926Z,14.60
2023-04-22T23:47:47.595Z,14.70
2023-04-22T23:50:16.393Z,14.70
2023-04-22T23:52:47.420Z,14.60
2023-04-22T23:58:07.750Z,14.50
